Ever Ulysses — 9V7962 — position and weather

sailwx.info

Track history (hours):
 
Tides and Currents Weather Stations Pressure Air Temp Water Temp Dewpoint Dewpoint Depression Visibility Wind Speed Wind Dir Waves Ship Positions

Ever Ulysses

Last reported at 2017-Aug-20 18:50 UTC. Time now 2017-Aug-20 19:02 UTC.
Position N 29°56' E 121°52'.

Length 285 m; draft 11.7 m.

Type: Ship (hazmat cat D). MMSI: 564442000.

Date/timePositionNaut miles runAvg speedWind from/ knotsBaromVisibWave heightAir tempDewpointWater temp
2017-Aug-20 18:50N 29°56' E 121°52'0 0.0
2017-Aug-20 17:50N 29°56' E 121°52'0 0.0
2017-Aug-20 16:39N 29°56' E 121°52'0 0.0
2017-Aug-20 16:26N 29°56' E 121°52'0 0.0
2017-Aug-20 15:44N 29°56' E 121°52'0 0.0
2017-Aug-20 15:21N 29°56' E 121°52'0 0.0
2017-Aug-20 14:50N 29°56' E 121°52'0 0.0
2017-Aug-20 14:26N 29°56' E 121°52'0 0.0
2017-Aug-20 13:14N 29°56' E 121°52'0 0.0
2017-Aug-20 12:44N 29°56' E 121°52'0 0.0
2017-Aug-20 12:26N 29°56' E 121°52'0 0.0
2017-Aug-20 11:56N 29°56' E 121°52'0 0.0
2017-Aug-20 11:20N 29°56' E 121°52'0 0.0
2017-Aug-20 10:56N 29°56' E 121°52'0 0.0
2017-Aug-20 10:21N 29°56' E 121°52'0 0.0
2017-Aug-20 09:50N 29°56' E 121°52'0 0.0
2017-Aug-20 09:26N 29°56' E 121°52'0 0.0
2017-Aug-20 08:56N 29°56' E 121°52'0 0.1
2017-Aug-20 08:30N 29°56' E 121°52'1 3.0
2017-Aug-20 08:00N 29°57' E 121°54'4 8.5
2017-Aug-20 07:30N 29°58' E 121°58'510.4
2017-Aug-20 07:00N 29°56' E 122°03'612.5
2017-Aug-20 06:30N 29°55' E 122°10'611.4
2017-Aug-20 06:00N 29°49' E 122°13'510.3
2017-Aug-20 05:30N 29°46' E 122°18'5 9.2
2017-Aug-20 05:00N 29°44' E 122°23'612.5
2017-Aug-20 04:30N 29°43' E 122°30'5 9.3
2017-Aug-20 03:59N 29°40' E 122°34'1 1.4
2017-Aug-20 03:30N 29°39' E 122°34'0 0.1
2017-Aug-20 01:49N 29°39' E 122°34'0 0.1
2017-Aug-20 01:19N 29°39' E 122°34'0 0.0
2017-Aug-20 00:16N 29°39' E 122°34'0 0.0
2017-Aug-19 23:46N 29°39' E 122°34'0 0.0
2017-Aug-19 23:16N 29°39' E 122°34'0 0.1
2017-Aug-19 22:58N 29°39' E 122°34'0 0.0
2017-Aug-19 22:28N 29°39' E 122°34'0 0.2
2017-Aug-19 21:52N 29°39' E 122°34'0 0.2
2017-Aug-19 21:10N 29°39' E 122°34'0 0.2
2017-Aug-19 20:52N 29°39' E 122°34'0 0.0
2017-Aug-19 20:28N 29°39' E 122°34'0 0.2
2017-Aug-19 19:58N 29°39' E 122°34'0 0.1
2017-Aug-19 19:28N 29°39' E 122°34'0 0.0
2017-Aug-19 18:58N 29°39' E 122°34'0 0.0
2017-Aug-19 18:28N 29°39' E 122°34'0 0.0
2017-Aug-19 17:58N 29°39' E 122°34'0 0.1
2017-Aug-19 17:28N 29°39' E 122°34'0 0.0
2017-Aug-19 16:58N 29°39' E 122°34'0 0.0
2017-Aug-19 16:16N 29°39' E 122°34'0 0.2
2017-Aug-19 15:58N 29°39' E 122°34'0 0.2
2017-Aug-19 15:28N 29°39' E 122°34'0 0.1
2017-Aug-19 14:58N 29°39' E 122°34'4 4.2
2017-Aug-19 13:59N 29°41' E 122°38'613.4
2017-Aug-19 13:30N 29°46' E 122°43'814.5
2017-Aug-19 12:59N 29°52' E 122°47'814.2
2017-Aug-19 12:27N 29°59' E 122°52'814.0
2017-Aug-19 11:53N 30°05' E 122°57'614.0
2017-Aug-19 11:29N 30°10' E 123°01'814.5
2017-Aug-19 10:58N 30°18' E 123°01'814.5
2017-Aug-19 10:24N 30°26' E 123°00'614.6
2017-Aug-19 10:00N 30°32' E 123°01'715.1
2017-Aug-19 09:30N 30°39' E 122°59'815.8
2017-Aug-19 09:01N 30°47' E 122°60'815.9
2017-Aug-19 08:30N 30°55' E 122°58'816.1
2017-Aug-19 08:00N 31°02' E 122°54'815.4
2017-Aug-19 07:30N 31°03' E 122°45'815.1
2017-Aug-19 07:00N 31°05' E 122°36'714.0
2017-Aug-19 06:30N 31°06' E 122°28'510.6
2017-Aug-19 06:00N 31°06' E 122°22'612.5
2017-Aug-19 05:31N 31°08' E 122°15'714.7
2017-Aug-19 05:00N 31°12' E 122°08'714.7
2017-Aug-19 04:31N 31°15' E 121°60'714.4
2017-Aug-19 04:01N 31°16' E 121°52'714.0
2017-Aug-19 03:30N 31°19' E 121°44'510.3
2017-Aug-19 03:00N 31°21' E 121°39'3 6.7
2017-Aug-19 02:30N 31°22' E 121°35'0 0.2
2017-Aug-19 01:56N 31°22' E 121°35'0 0.0
2017-Aug-19 01:23N 31°22' E 121°35'0 0.0
2017-Aug-19 01:00N 31°22' E 121°35'0 0.0
2017-Aug-19 00:29N 31°22' E 121°35'0 0.0
2017-Aug-18 23:59N 31°22' E 121°35'0 0.0
2017-Aug-18 23:29N 31°22' E 121°35'0 0.0
2017-Aug-18 22:59N 31°22' E 121°35'0 0.1
2017-Aug-18 22:24N 31°22' E 121°35'0 0.0
2017-Aug-18 21:59N 31°22' E 121°35'0 0.0
2017-Aug-18 21:26N 31°22' E 121°35'0 0.0
2017-Aug-18 20:59N 31°22' E 121°35'0 0.0
2017-Aug-18 20:30N 31°22' E 121°35'0 0.0
2017-Aug-18 19:59N 31°22' E 121°35'0 0.0
2017-Aug-18 19:29N 31°22' E 121°35'0 0.0
2017-Aug-18 18:59N 31°22' E 121°35'0 0.0
2017-Aug-18 18:27N 31°22' E 121°35'0 0.0
2017-Aug-18 17:59N 31°22' E 121°35'0 0.0
2017-Aug-18 17:30N 31°22' E 121°35'0 0.0
2017-Aug-18 16:59N 31°22' E 121°35'0 0.0
2017-Aug-18 16:29N 31°22' E 121°35'0 0.0
2017-Aug-18 15:59N 31°22' E 121°35'0 0.0
2017-Aug-18 15:30N 31°22' E 121°35'0 0.0
2017-Aug-18 14:59N 31°22' E 121°35'0 0.3
2017-Aug-18 14:00N 31°23' E 121°35'1 1.2
2017-Aug-18 13:30N 31°23' E 121°36'4 7.5
2017-Aug-18 13:00N 31°21' E 121°40'5 9.3
2017-Aug-18 12:30N 31°19' E 121°45'510.7
2017-Aug-18 12:00N 31°17' E 121°50'5 9.4
2017-Aug-18 11:30N 31°16' E 121°56'510.6
2017-Aug-18 11:00N 31°15' E 122°02'510.7
2017-Aug-18 10:30N 31°13' E 122°08'5 9.4
2017-Aug-18 10:00N 31°10' E 122°12'510.0
2017-Aug-18 09:30N 31°07' E 122°17'5 9.8
2017-Aug-18 09:00N 31°06' E 122°22'510.2
2017-Aug-18 08:29N 31°07' E 122°28'3 5.9
2017-Aug-18 07:56N 31°06' E 122°32'3 6.6
2017-Aug-18 07:30N 31°06' E 122°35'3 5.9
2017-Aug-18 07:00N 31°06' E 122°39'3 6.4
2017-Aug-18 06:30N 31°06' E 122°43'4 8.4
2017-Aug-18 06:00N 31°05' E 122°47'611.5
2017-Aug-18 05:28N 31°01' E 122°53'814.0
2017-Aug-18 04:54N 30°56' E 122°60'512.1
2017-Aug-18 04:30N 30°52' E 123°03'714.5
2017-Aug-18 04:00N 30°44' E 123°03'3116.7
2017-Aug-18 02:11N 30°14' E 123°06'420.8
2017-Aug-18 02:00N 30°11' E 123°07'1119.1
2017-Aug-18 01:26N 30°00' E 123°04'920.0
2017-Aug-18 00:58N 29°51' E 123°02'3017.9
2017-Aug-17 23:19N 29°22' E 122°56'41917.2
2017-Aug-16 22:54N 22°55' E 119°56'716.1
2017-Aug-16 22:30N 22°48' E 119°57'815.7
2017-Aug-16 22:01N 22°41' E 119°60'815.1
2017-Aug-16 21:31N 22°36' E 120°06'815.7
2017-Aug-16 21:00N 22°33' E 120°14'5 9.7
2017-Aug-16 20:29N 22°33' E 120°19'0 0.5
2017-Aug-16 19:56N 22°33' E 120°19'0 0.0
2017-Aug-16 19:29N 22°33' E 120°19'0 0.0
2017-Aug-16 18:59N 22°33' E 120°19'0 0.0
2017-Aug-16 18:26N 22°33' E 120°19'0 0.0
2017-Aug-16 17:56N 22°33' E 120°19'0 0.0
2017-Aug-16 17:29N 22°33' E 120°19'0 0.0
2017-Aug-16 16:59N 22°33' E 120°19'0 0.0
2017-Aug-16 16:29N 22°33' E 120°19'0 0.0
2017-Aug-16 15:59N 22°33' E 120°19'0 0.0
2017-Aug-16 15:29N 22°33' E 120°19'0 0.0
2017-Aug-16 14:59N 22°33' E 120°19'0 0.0
2017-Aug-16 14:29N 22°33' E 120°19'0 0.0
2017-Aug-16 13:59N 22°33' E 120°19'0 0.0
2017-Aug-16 13:29N 22°33' E 120°19'0 0.0
2017-Aug-16 12:53N 22°33' E 120°19'0 0.0
2017-Aug-16 12:30N 22°33' E 120°19'0 0.0
2017-Aug-16 11:41N 22°33' E 120°19'0 0.0
2017-Aug-16 08:52N 22°33' E 120°19'0 0.0
2017-Aug-16 08:30N 22°33' E 120°19'1 2.0
2017-Aug-16 08:00N 22°33' E 120°18'3 5.6
2017-Aug-16 07:30N 22°32' E 120°15'1 2.2
2017-Aug-16 07:00N 22°32' E 120°14'713.2
2017-Aug-16 06:30N 22°31' E 120°07'917.3
2017-Aug-16 06:00N 22°28' E 119°58'31610.6
2017-Aug-15 00:10N 22°34' E 114°16'0 0.3
2017-Aug-15 00:00N 22°34' E 114°16'1 1.4
2017-Aug-14 23:26N 22°34' E 114°16'17 1.9
2017-Aug-14 14:26N 22°19' E 114°06'1 0.1
2017-Aug-14 03:33N 22°20' E 114°08'0 1.8
2017-Aug-14 03:18N 22°19' E 114°07'20815.1
2017-Aug-13 13:31N 23°21' E 117°43'027.2
2017-Aug-13 13:30N 23°21' E 117°44'6718.6
2017-Aug-13 09:54N 23°55' E 118°47'818.6
2017-Aug-13 09:28N 23°59' E 118°54'2319.8
2017-Aug-13 08:18N 24°15' E 119°12'820.3
2017-Aug-13 07:55N 24°20' E 119°18'920.5
2017-Aug-13 07:30N 24°27' E 119°25'1420.6
2017-Aug-13 06:48N 24°37' E 119°36'45820.0
2017-Aug-12 07:50N 31°28' E 123°24'  
Track history (hours):
 
Tides and Currents Weather Stations Pressure Air Temp Water Temp Dewpoint Dewpoint Depression Visibility Wind Speed Wind Dir Waves Ship Positions

Ever Ulysses

Last reported at 2017-Aug-20 18:50 UTC. Time now 2017-Aug-20 19:02 UTC.
Position N 29°56' E 121°52'.

Length 285 m; draft 11.7 m.

Type: Ship (hazmat cat D). MMSI: 564442000.

Date/timePositionNaut miles runAvg speedWind from/ knotsBaromVisibWave heightAir tempDewpointWater temp
2017-Aug-20 18:50N 29°56' E 121°52'0 0.0
2017-Aug-20 17:50N 29°56' E 121°52'0 0.0
2017-Aug-20 16:39N 29°56' E 121°52'0 0.0
2017-Aug-20 16:26N 29°56' E 121°52'0 0.0
2017-Aug-20 15:44N 29°56' E 121°52'0 0.0
2017-Aug-20 15:21N 29°56' E 121°52'0 0.0
2017-Aug-20 14:50N 29°56' E 121°52'0 0.0
2017-Aug-20 14:26N 29°56' E 121°52'0 0.0
2017-Aug-20 13:14N 29°56' E 121°52'0 0.0
2017-Aug-20 12:44N 29°56' E 121°52'0 0.0
2017-Aug-20 12:26N 29°56' E 121°52'0 0.0
2017-Aug-20 11:56N 29°56' E 121°52'0 0.0
2017-Aug-20 11:20N 29°56' E 121°52'0 0.0
2017-Aug-20 10:56N 29°56' E 121°52'0 0.0
2017-Aug-20 10:21N 29°56' E 121°52'0 0.0
2017-Aug-20 09:50N 29°56' E 121°52'0 0.0
2017-Aug-20 09:26N 29°56' E 121°52'0 0.0
2017-Aug-20 08:56N 29°56' E 121°52'0 0.1
2017-Aug-20 08:30N 29°56' E 121°52'1 3.0
2017-Aug-20 08:00N 29°57' E 121°54'4 8.5
2017-Aug-20 07:30N 29°58' E 121°58'510.4
2017-Aug-20 07:00N 29°56' E 122°03'612.5
2017-Aug-20 06:30N 29°55' E 122°10'611.4
2017-Aug-20 06:00N 29°49' E 122°13'510.3
2017-Aug-20 05:30N 29°46' E 122°18'5 9.2
2017-Aug-20 05:00N 29°44' E 122°23'612.5
2017-Aug-20 04:30N 29°43' E 122°30'5 9.3
2017-Aug-20 03:59N 29°40' E 122°34'1 1.4
2017-Aug-20 03:30N 29°39' E 122°34'0 0.1
2017-Aug-20 01:49N 29°39' E 122°34'0 0.1
2017-Aug-20 01:19N 29°39' E 122°34'0 0.0
2017-Aug-20 00:16N 29°39' E 122°34'0 0.0
2017-Aug-19 23:46N 29°39' E 122°34'0 0.0
2017-Aug-19 23:16N 29°39' E 122°34'0 0.1
2017-Aug-19 22:58N 29°39' E 122°34'0 0.0
2017-Aug-19 22:28N 29°39' E 122°34'0 0.2
2017-Aug-19 21:52N 29°39' E 122°34'0 0.2
2017-Aug-19 21:10N 29°39' E 122°34'0 0.2
2017-Aug-19 20:52N 29°39' E 122°34'0 0.0
2017-Aug-19 20:28N 29°39' E 122°34'0 0.2
2017-Aug-19 19:58N 29°39' E 122°34'0 0.1
2017-Aug-19 19:28N 29°39' E 122°34'0 0.0
2017-Aug-19 18:58N 29°39' E 122°34'0 0.0
2017-Aug-19 18:28N 29°39' E 122°34'0 0.0
2017-Aug-19 17:58N 29°39' E 122°34'0 0.1
2017-Aug-19 17:28N 29°39' E 122°34'0 0.0
2017-Aug-19 16:58N 29°39' E 122°34'0 0.0
2017-Aug-19 16:16N 29°39' E 122°34'0 0.2
2017-Aug-19 15:58N 29°39' E 122°34'0 0.2
2017-Aug-19 15:28N 29°39' E 122°34'0 0.1
2017-Aug-19 14:58N 29°39' E 122°34'4 4.2
2017-Aug-19 13:59N 29°41' E 122°38'613.4
2017-Aug-19 13:30N 29°46' E 122°43'814.5
2017-Aug-19 12:59N 29°52' E 122°47'814.2
2017-Aug-19 12:27N 29°59' E 122°52'814.0
2017-Aug-19 11:53N 30°05' E 122°57'614.0
2017-Aug-19 11:29N 30°10' E 123°01'814.5
2017-Aug-19 10:58N 30°18' E 123°01'814.5
2017-Aug-19 10:24N 30°26' E 123°00'614.6
2017-Aug-19 10:00N 30°32' E 123°01'715.1
2017-Aug-19 09:30N 30°39' E 122°59'815.8
2017-Aug-19 09:01N 30°47' E 122°60'815.9
2017-Aug-19 08:30N 30°55' E 122°58'816.1
2017-Aug-19 08:00N 31°02' E 122°54'815.4
2017-Aug-19 07:30N 31°03' E 122°45'815.1
2017-Aug-19 07:00N 31°05' E 122°36'714.0
2017-Aug-19 06:30N 31°06' E 122°28'510.6
2017-Aug-19 06:00N 31°06' E 122°22'612.5
2017-Aug-19 05:31N 31°08' E 122°15'714.7
2017-Aug-19 05:00N 31°12' E 122°08'714.7
2017-Aug-19 04:31N 31°15' E 121°60'714.4
2017-Aug-19 04:01N 31°16' E 121°52'714.0
2017-Aug-19 03:30N 31°19' E 121°44'510.3
2017-Aug-19 03:00N 31°21' E 121°39'3 6.7
2017-Aug-19 02:30N 31°22' E 121°35'0 0.2
2017-Aug-19 01:56N 31°22' E 121°35'0 0.0
2017-Aug-19 01:23N 31°22' E 121°35'0 0.0
2017-Aug-19 01:00N 31°22' E 121°35'0 0.0
2017-Aug-19 00:29N 31°22' E 121°35'0 0.0
2017-Aug-18 23:59N 31°22' E 121°35'0 0.0
2017-Aug-18 23:29N 31°22' E 121°35'0 0.0
2017-Aug-18 22:59N 31°22' E 121°35'0 0.1
2017-Aug-18 22:24N 31°22' E 121°35'0 0.0
2017-Aug-18 21:59N 31°22' E 121°35'0 0.0
2017-Aug-18 21:26N 31°22' E 121°35'0 0.0
2017-Aug-18 20:59N 31°22' E 121°35'0 0.0
2017-Aug-18 20:30N 31°22' E 121°35'0 0.0
2017-Aug-18 19:59N 31°22' E 121°35'0 0.0
2017-Aug-18 19:29N 31°22' E 121°35'0 0.0
2017-Aug-18 18:59N 31°22' E 121°35'0 0.0
2017-Aug-18 18:27N 31°22' E 121°35'0 0.0
2017-Aug-18 17:59N 31°22' E 121°35'0 0.0
2017-Aug-18 17:30N 31°22' E 121°35'0 0.0
2017-Aug-18 16:59N 31°22' E 121°35'0 0.0
2017-Aug-18 16:29N 31°22' E 121°35'0 0.0
2017-Aug-18 15:59N 31°22' E 121°35'0 0.0
2017-Aug-18 15:30N 31°22' E 121°35'0 0.0
2017-Aug-18 14:59N 31°22' E 121°35'0 0.3
2017-Aug-18 14:00N 31°23' E 121°35'1 1.2
2017-Aug-18 13:30N 31°23' E 121°36'4 7.5
2017-Aug-18 13:00N 31°21' E 121°40'5 9.3
2017-Aug-18 12:30N 31°19' E 121°45'510.7
2017-Aug-18 12:00N 31°17' E 121°50'5 9.4
2017-Aug-18 11:30N 31°16' E 121°56'510.6
2017-Aug-18 11:00N 31°15' E 122°02'510.7
2017-Aug-18 10:30N 31°13' E 122°08'5 9.4
2017-Aug-18 10:00N 31°10' E 122°12'510.0
2017-Aug-18 09:30N 31°07' E 122°17'5 9.8
2017-Aug-18 09:00N 31°06' E 122°22'510.2
2017-Aug-18 08:29N 31°07' E 122°28'3 5.9
2017-Aug-18 07:56N 31°06' E 122°32'3 6.6
2017-Aug-18 07:30N 31°06' E 122°35'3 5.9
2017-Aug-18 07:00N 31°06' E 122°39'3 6.4
2017-Aug-18 06:30N 31°06' E 122°43'4 8.4
2017-Aug-18 06:00N 31°05' E 122°47'611.5
2017-Aug-18 05:28N 31°01' E 122°53'814.0
2017-Aug-18 04:54N 30°56' E 122°60'512.1
2017-Aug-18 04:30N 30°52' E 123°03'714.5
2017-Aug-18 04:00N 30°44' E 123°03'3116.7
2017-Aug-18 02:11N 30°14' E 123°06'420.8
2017-Aug-18 02:00N 30°11' E 123°07'1119.1
2017-Aug-18 01:26N 30°00' E 123°04'920.0
2017-Aug-18 00:58N 29°51' E 123°02'3017.9
2017-Aug-17 23:19N 29°22' E 122°56'41917.2
2017-Aug-16 22:54N 22°55' E 119°56'716.1
2017-Aug-16 22:30N 22°48' E 119°57'815.7
2017-Aug-16 22:01N 22°41' E 119°60'815.1
2017-Aug-16 21:31N 22°36' E 120°06'815.7
2017-Aug-16 21:00N 22°33' E 120°14'5 9.7
2017-Aug-16 20:29N 22°33' E 120°19'0 0.5
2017-Aug-16 19:56N 22°33' E 120°19'0 0.0
2017-Aug-16 19:29N 22°33' E 120°19'0 0.0
2017-Aug-16 18:59N 22°33' E 120°19'0 0.0
2017-Aug-16 18:26N 22°33' E 120°19'0 0.0
2017-Aug-16 17:56N 22°33' E 120°19'0 0.0
2017-Aug-16 17:29N 22°33' E 120°19'0 0.0
2017-Aug-16 16:59N 22°33' E 120°19'0 0.0
2017-Aug-16 16:29N 22°33' E 120°19'0 0.0
2017-Aug-16 15:59N 22°33' E 120°19'0 0.0
2017-Aug-16 15:29N 22°33' E 120°19'0 0.0
2017-Aug-16 14:59N 22°33' E 120°19'0 0.0
2017-Aug-16 14:29N 22°33' E 120°19'0 0.0
2017-Aug-16 13:59N 22°33' E 120°19'0 0.0
2017-Aug-16 13:29N 22°33' E 120°19'0 0.0
2017-Aug-16 12:53N 22°33' E 120°19'0 0.0
2017-Aug-16 12:30N 22°33' E 120°19'0 0.0
2017-Aug-16 11:41N 22°33' E 120°19'0 0.0
2017-Aug-16 08:52N 22°33' E 120°19'0 0.0
2017-Aug-16 08:30N 22°33' E 120°19'1 2.0
2017-Aug-16 08:00N 22°33' E 120°18'3 5.6
2017-Aug-16 07:30N 22°32' E 120°15'1 2.2
2017-Aug-16 07:00N 22°32' E 120°14'713.2
2017-Aug-16 06:30N 22°31' E 120°07'917.3
2017-Aug-16 06:00N 22°28' E 119°58'31610.6
2017-Aug-15 00:10N 22°34' E 114°16'0 0.3
2017-Aug-15 00:00N 22°34' E 114°16'1 1.4
2017-Aug-14 23:26N 22°34' E 114°16'17 1.9
2017-Aug-14 14:26N 22°19' E 114°06'1 0.1
2017-Aug-14 03:33N 22°20' E 114°08'0 1.8
2017-Aug-14 03:18N 22°19' E 114°07'20815.1
2017-Aug-13 13:31N 23°21' E 117°43'027.2
2017-Aug-13 13:30N 23°21' E 117°44'6718.6
2017-Aug-13 09:54N 23°55' E 118°47'818.6
2017-Aug-13 09:28N 23°59' E 118°54'2319.8
2017-Aug-13 08:18N 24°15' E 119°12'820.3
2017-Aug-13 07:55N 24°20' E 119°18'920.5
2017-Aug-13 07:30N 24°27' E 119°25'1420.6
2017-Aug-13 06:48N 24°37' E 119°36'45820.0
2017-Aug-12 07:50N 31°28' E 123°24'  

Dump ship's entire track history